createdAt,value
2023-04-13T00:01:37.846Z,0.30
2023-04-13T00:06:39.259Z,0.47
2023-04-13T00:11:40.662Z,0.73
2023-04-13T00:16:42.425Z,0.60
2023-04-13T00:21:43.861Z,0.60
2023-04-13T00:26:45.500Z,0.40
2023-04-13T00:31:47.120Z,0.45
2023-04-13T00:36:49.255Z,0.35
2023-04-13T00:41:53.558Z,0.32
2023-04-13T00:46:55.056Z,0.40
2023-04-13T00:51:56.715Z,0.40
2023-04-13T00:56:59.145Z,1.13
2023-04-13T01:02:05.238Z,0.30
2023-04-13T01:07:33.352Z,0.50
2023-04-13T01:12:47.119Z,0.55
2023-04-13T01:18:05.158Z,0.50
2023-04-13T01:23:09.900Z,0.50
2023-04-13T01:28:21.464Z,0.40
2023-04-13T01:33:25.617Z,0.95
2023-04-13T01:38:27.721Z,0.35
2023-04-13T01:43:29.992Z,0.50
2023-04-13T01:48:43.246Z,0.70
2023-04-13T01:53:50.027Z,0.40
2023-04-13T01:58:56.319Z,1.00
2023-04-13T02:03:58.522Z,0.50
2023-04-13T02:09:00.474Z,0.50
2023-04-13T02:14:02.358Z,0.52
2023-04-13T02:19:03.950Z,0.70
2023-04-13T02:24:06.376Z,0.73
2023-04-13T02:29:07.953Z,1.20
2023-04-13T02:34:11.101Z,0.60
2023-04-13T02:39:13.805Z,0.50
2023-04-13T02:44:15.861Z,0.52
2023-04-13T02:49:17.304Z,0.57
2023-04-13T02:54:18.786Z,0.68
2023-04-13T02:59:21.339Z,0.55
2023-04-13T03:04:22.751Z,0.60
2023-04-13T03:09:25.326Z,0.50
2023-04-13T03:14:29.925Z,0.40
2023-04-13T03:19:31.788Z,0.52
2023-04-13T03:24:35.073Z,0.50
2023-04-13T03:29:37.074Z,1.30
2023-04-13T03:34:43.921Z,0.50
2023-04-13T03:39:45.657Z,0.65
2023-04-13T03:44:47.968Z,0.75
2023-04-13T03:49:49.902Z,0.80
2023-04-13T03:54:51.400Z,0.63
2023-04-13T03:59:52.929Z,0.60
2023-04-13T04:04:54.398Z,0.60
2023-04-13T04:09:55.915Z,0.73
2023-04-13T04:14:57.390Z,0.57
2023-04-13T04:19:58.873Z,0.80
2023-04-13T04:25:01.883Z,0.68
2023-04-13T04:30:07.135Z,1.02
2023-04-13T04:35:12.113Z,0.65
2023-04-13T04:40:13.610Z,1.27
2023-04-13T04:45:15.274Z,0.60
2023-04-13T04:50:17.825Z,1.02
2023-04-13T04:55:19.356Z,1.10
2023-04-13T05:00:23.200Z,0.90
2023-04-13T05:05:25.546Z,0.95
2023-04-13T05:10:29.654Z,0.95
2023-04-13T05:15:31.432Z,0.82
2023-04-13T05:20:34.779Z,0.93
2023-04-13T05:25:37.131Z,1.42
2023-04-13T05:30:40.155Z,0.95
2023-04-13T05:35:41.832Z,1.40
2023-04-13T05:40:43.383Z,1.02
2023-04-13T05:45:45.242Z,0.95
2023-04-13T05:50:46.819Z,0.95
2023-04-13T05:55:48.539Z,0.98
2023-04-13T06:00:50.718Z,0.80
2023-04-13T06:05:52.681Z,0.90
2023-04-13T06:10:54.072Z,1.10
2023-04-13T06:15:55.545Z,1.40
2023-04-13T06:20:57.820Z,0.90
2023-04-13T06:25:59.341Z,1.23
2023-04-13T06:31:00.931Z,0.90
2023-04-13T06:36:02.352Z,0.88
2023-04-13T06:41:04.669Z,1.23
2023-04-13T06:46:06.389Z,1.00
2023-04-13T06:51:07.858Z,1.02
2023-04-13T06:56:09.259Z,1.33
2023-04-13T07:01:10.764Z,1.02
2023-04-13T07:06:12.272Z,1.00
2023-04-13T07:11:15.420Z,1.05
2023-04-13T07:16:17.012Z,0.75
2023-04-13T07:21:18.495Z,1.17
2023-04-13T07:26:19.956Z,0.85
2023-04-13T07:31:21.486Z,1.98
2023-04-13T07:36:24.170Z,0.95
2023-04-13T07:41:25.859Z,1.17
2023-04-13T07:46:27.672Z,0.90
2023-04-13T07:51:30.137Z,1.30
2023-04-13T07:56:31.732Z,1.52
2023-04-13T08:01:33.228Z,1.15
2023-04-13T08:06:34.863Z,1.52
2023-04-13T08:11:36.346Z,1.73
2023-04-13T08:16:38.235Z,1.33
2023-04-13T08:21:42.818Z,1.65
2023-04-13T08:26:45.143Z,1.30
2023-04-13T08:31:46.932Z,1.42
2023-04-13T08:36:48.558Z,1.30
2023-04-13T08:41:50.634Z,1.40
2023-04-13T08:46:53.346Z,1.63
2023-04-13T08:51:59.848Z,1.63
2023-04-13T08:57:02.684Z,2.00
2023-04-13T09:02:06.763Z,1.48
2023-04-13T09:07:13.195Z,1.48
2023-04-13T09:12:14.955Z,2.15
2023-04-13T09:17:27.662Z,1.58
2023-04-13T09:22:29.365Z,2.20
2023-04-13T09:27:31.104Z,2.17
2023-04-13T09:32:32.792Z,1.30
2023-04-13T09:37:44.673Z,1.58
2023-04-13T09:43:04.661Z,1.50
2023-04-13T09:48:17.868Z,1.63
2023-04-13T09:53:19.392Z,1.80
2023-04-13T09:58:20.915Z,1.70
2023-04-13T10:03:23.823Z,2.03
2023-04-13T10:08:36.662Z,1.40
2023-04-13T10:14:09.137Z,2.25
2023-04-13T10:19:13.852Z,1.67
